createdAt,value
2023-10-15T00:00:32.553Z,15.33
2023-10-15T00:02:04.484Z,15.39
2023-10-15T00:03:36.418Z,15.38
2023-10-15T00:05:08.504Z,15.36
2023-10-15T00:06:40.273Z,15.35
2023-10-15T00:08:12.214Z,15.35
2023-10-15T00:09:44.241Z,15.33
2023-10-15T00:11:16.073Z,15.32
2023-10-15T00:12:48.020Z,15.28
2023-10-15T00:14:19.960Z,15.27
2023-10-15T00:15:51.890Z,15.26
2023-10-15T00:17:23.819Z,15.25
2023-10-15T00:18:55.746Z,15.24
2023-10-15T00:20:27.668Z,15.23
2023-10-15T00:21:59.620Z,15.2
2023-10-15T00:23:31.554Z,15.2
2023-10-15T00:25:03.495Z,15.19
2023-10-15T00:26:35.451Z,15.19
2023-10-15T00:28:07.382Z,15.17
2023-10-15T00:29:39.286Z,15.17
2023-10-15T00:31:11.216Z,15.14
2023-10-15T00:32:43.154Z,15.13
2023-10-15T00:34:15.063Z,15.1
2023-10-15T00:35:47.017Z,15.1
2023-10-15T00:37:18.940Z,15.08
2023-10-15T00:38:50.884Z,15.07
2023-10-15T00:40:22.857Z,15.06
2023-10-15T00:41:54.774Z,15.04
2023-10-15T00:43:26.683Z,15.03
2023-10-15T00:44:58.617Z,15.03
2023-10-15T00:46:30.547Z,15.01
2023-10-15T00:48:02.475Z,15
2023-10-15T00:49:34.426Z,14.98
2023-10-15T00:51:06.339Z,14.96
2023-10-15T00:52:38.268Z,14.95
2023-10-15T00:54:10.215Z,14.94
2023-10-15T00:55:42.165Z,14.92
2023-10-15T00:57:14.092Z,14.92
2023-10-15T00:58:46.023Z,14.92
2023-10-15T01:00:17.934Z,14.9
2023-10-15T01:01:49.866Z,14.88
2023-10-15T01:03:21.826Z,14.81
2023-10-15T01:04:53.772Z,14.86
2023-10-15T01:06:25.689Z,14.86
2023-10-15T01:07:57.628Z,14.83
2023-10-15T01:09:29.536Z,14.81
2023-10-15T01:11:01.503Z,14.82
2023-10-15T01:12:33.483Z,14.8
2023-10-15T01:14:05.354Z,14.78
2023-10-15T01:15:37.300Z,14.78
2023-10-15T01:17:09.228Z,14.78
2023-10-15T01:18:41.176Z,14.77
2023-10-15T01:20:13.095Z,14.73
2023-10-15T01:21:45.079Z,14.73
2023-10-15T01:23:16.977Z,14.71
2023-10-15T01:24:48.879Z,14.71
2023-10-15T01:26:20.837Z,14.7
2023-10-15T01:27:52.754Z,14.71
2023-10-15T01:29:24.698Z,14.7
2023-10-15T01:30:56.635Z,14.68
2023-10-15T01:32:28.575Z,14.65
2023-10-15T01:34:00.511Z,14.61
2023-10-15T01:35:32.433Z,14.59
2023-10-15T01:37:04.369Z,14.58
2023-10-15T01:38:36.318Z,14.57
2023-10-15T01:40:08.229Z,14.54
2023-10-15T01:41:40.148Z,14.54
2023-10-15T01:43:12.097Z,14.55
2023-10-15T01:44:44.035Z,14.52
2023-10-15T01:46:15.963Z,14.53
2023-10-15T01:47:47.899Z,14.52
2023-10-15T01:49:19.818Z,14.53
2023-10-15T01:50:51.749Z,14.5
2023-10-15T01:52:23.685Z,14.5
2023-10-15T01:53:55.627Z,14.48
2023-10-15T01:55:27.567Z,14.48
2023-10-15T01:56:59.488Z,14.47
2023-10-15T01:58:31.436Z,14.43
2023-10-15T02:00:03.364Z,14.46
2023-10-15T02:01:35.284Z,14.43
2023-10-15T02:03:07.219Z,14.41
2023-10-15T02:04:39.171Z,14.39
2023-10-15T02:06:11.089Z,14.36
2023-10-15T02:07:43.102Z,14.35
2023-10-15T02:09:14.971Z,14.34
2023-10-15T02:10:46.894Z,14.32
2023-10-15T02:12:18.822Z,14.31
2023-10-15T02:13:50.779Z,14.32
2023-10-15T02:15:22.685Z,14.3
2023-10-15T02:16:54.626Z,14.28
2023-10-15T02:18:26.635Z,14.27
2023-10-15T02:19:58.494Z,14.27
2023-10-15T02:21:30.447Z,14.26
2023-10-15T02:23:02.370Z,14.22
2023-10-15T02:24:34.302Z,14.2
2023-10-15T02:26:06.258Z,14.15
2023-10-15T02:27:38.158Z,14.24
2023-10-15T02:29:10.108Z,14.22
2023-10-15T02:30:42.041Z,14.2
2023-10-15T02:32:13.959Z,14.19
2023-10-15T02:33:45.900Z,14.16
2023-10-15T02:35:17.822Z,14.14
2023-10-15T02:36:49.880Z,14.14
2023-10-15T02:38:21.704Z,14.13
2023-10-15T02:41:25.567Z,14.13
2023-10-15T02:42:57.492Z,14.08
2023-10-15T02:44:29.480Z,14.07
2023-10-15T02:46:01.373Z,14.07
2023-10-15T02:47:33.295Z,14
2023-10-15T02:49:05.254Z,13.99
2023-10-15T02:50:37.168Z,14.05
2023-10-15T02:52:09.092Z,14.05
2023-10-15T02:53:41.035Z,14.03
2023-10-15T02:55:12.972Z,14
2023-10-15T02:56:44.914Z,14
2023-10-15T02:58:16.828Z,14
2023-10-15T02:59:48.787Z,13.99
2023-10-15T03:01:20.709Z,13.98
2023-10-15T03:02:52.641Z,13.96
2023-10-15T03:04:24.579Z,13.88
2023-10-15T03:05:56.494Z,13.87
2023-10-15T03:07:28.425Z,13.93
2023-10-15T03:09:00.493Z,13.91
2023-10-15T03:10:32.299Z,13.92
2023-10-15T03:12:04.241Z,13.89
2023-10-15T03:13:36.167Z,13.88
2023-10-15T03:15:08.095Z,13.88
2023-10-15T03:16:40.129Z,13.88
2023-10-15T03:18:11.972Z,13.87
2023-10-15T03:19:43.905Z,13.86
2023-10-15T03:21:15.834Z,13.84
2023-10-15T03:22:47.780Z,13.82
2023-10-15T03:24:19.966Z,13.81
2023-10-15T03:25:51.632Z,13.81
2023-10-15T03:27:23.629Z,13.8
2023-10-15T03:28:55.516Z,13.79
2023-10-15T03:30:27.447Z,13.77
2023-10-15T03:31:59.376Z,13.79
2023-10-15T03:33:31.307Z,13.78
2023-10-15T03:35:03.238Z,13.76
2023-10-15T03:36:35.186Z,13.7
2023-10-15T03:38:07.151Z,13.76
2023-10-15T03:39:39.059Z,13.75
2023-10-15T03:41:10.986Z,13.74
2023-10-15T03:42:42.904Z,13.66
2023-10-15T03:44:14.877Z,13.71
2023-10-15T03:45:46.857Z,13.71
2023-10-15T03:47:18.775Z,13.71
2023-10-15T03:48:50.644Z,13.68
2023-10-15T03:50:22.578Z,13.68
2023-10-15T03:51:54.514Z,13.69
2023-10-15T03:53:26.457Z,13.67
2023-10-15T03:54:58.376Z,13.64
2023-10-15T03:56:30.336Z,13.62
2023-10-15T03:58:02.242Z,13.64
2023-10-15T03:59:34.260Z,13.63
2023-10-15T04:01:06.108Z,13.61
2023-10-15T04:02:38.047Z,13.62
2023-10-15T04:04:09.979Z,13.59
2023-10-15T04:05:41.904Z,13.58
2023-10-15T04:07:13.858Z,13.58
2023-10-15T04:08:45.849Z,13.55
2023-10-15T04:10:17.729Z,13.55
2023-10-15T04:11:49.654Z,13.52
2023-10-15T04:13:21.600Z,13.51
2023-10-15T04:14:53.512Z,13.49
2023-10-15T04:16:25.453Z,13.5
2023-10-15T04:17:57.427Z,13.49
2023-10-15T04:19:29.306Z,13.49
2023-10-15T04:21:01.262Z,13.46
2023-10-15T04:22:33.174Z,13.46
2023-10-15T04:24:05.119Z,13.47
2023-10-15T04:25:37.051Z,13.47
2023-10-15T04:27:09.054Z,13.49
2023-10-15T04:28:40.927Z,13.41
2023-10-15T04:30:12.849Z,13.45
2023-10-15T04:31:44.788Z,13.45
2023-10-15T04:33:16.725Z,13.45
2023-10-15T04:34:48.658Z,13.43
2023-10-15T04:36:20.578Z,13.41
2023-10-15T04:37:52.527Z,13.42
2023-10-15T04:39:24.460Z,13.4
2023-10-15T04:40:56.431Z,13.33
2023-10-15T04:42:28.333Z,13.39
2023-10-15T04:44:00.253Z,13.36
2023-10-15T04:45:32.191Z,13.36
2023-10-15T04:47:04.120Z,13.37
2023-10-15T04:48:36.052Z,13.36
2023-10-15T04:50:08.285Z,13.33
2023-10-15T04:51:39.933Z,13.33
2023-10-15T04:53:11.856Z,13.31
2023-10-15T04:54:43.797Z,13.3
2023-10-15T04:56:15.723Z,13.29
2023-10-15T04:57:47.670Z,13.28
2023-10-15T04:59:19.590Z,13.28
2023-10-15T05:00:51.532Z,13.25
2023-10-15T05:02:23.460Z,13.23
2023-10-15T05:03:55.381Z,13.24
2023-10-15T05:05:27.326Z,13.23
2023-10-15T05:06:59.288Z,13.23
2023-10-15T05:08:31.194Z,13.24
2023-10-15T05:10:03.164Z,13.23
2023-10-15T05:11:35.062Z,13.23
2023-10-15T05:13:07.003Z,13.22
2023-10-15T05:14:38.927Z,13.24
2023-10-15T05:16:10.864Z,13.22
2023-10-15T05:17:42.783Z,13.22
2023-10-15T05:19:14.719Z,13.22
2023-10-15T05:20:46.661Z,13.21
2023-10-15T05:22:18.680Z,13.27
2023-10-15T05:23:50.589Z,13.26
2023-10-15T05:25:22.454Z,13.33
2023-10-15T05:26:54.412Z,13.3
2023-10-15T05:28:26.321Z,13.42
2023-10-15T05:29:58.262Z,13.45
2023-10-15T05:31:30.203Z,13.35
2023-10-15T05:33:02.134Z,13.43
2023-10-15T05:34:34.062Z,13.53
2023-10-15T05:36:06.052Z,13.56
2023-10-15T05:37:37.920Z,13.65
2023-10-15T05:39:09.868Z,13.67
2023-10-15T05:40:41.799Z,13.72
2023-10-15T05:42:13.733Z,13.42
2023-10-15T05:43:45.653Z,13.5
2023-10-15T05:45:17.726Z,13.62
2023-10-15T05:46:49.533Z,13.68
2023-10-15T05:48:21.468Z,13.74
2023-10-15T05:49:53.406Z,13.76
2023-10-15T05:51:25.347Z,13.75
2023-10-15T05:52:57.256Z,13.5
2023-10-15T05:54:29.185Z,13.59
2023-10-15T05:56:01.138Z,13.64
2023-10-15T05:57:33.058Z,13.69
2023-10-15T05:59:05.013Z,13.74
2023-10-15T06:00:36.938Z,13.76
2023-10-15T06:02:08.886Z,13.73
2023-10-15T06:03:40.852Z,13.72
2023-10-15T06:05:12.746Z,13.83
2023-10-15T06:06:44.671Z,13.86
2023-10-15T06:08:16.612Z,13.84
2023-10-15T06:09:48.526Z,13.76
2023-10-15T06:11:20.459Z,13.69
2023-10-15T06:12:52.404Z,13.64
2023-10-15T06:14:24.343Z,13.61
2023-10-15T06:15:56.290Z,13.6
2023-10-15T06:17:28.334Z,13.57
2023-10-15T06:19:00.136Z,13.56
2023-10-15T06:20:32.075Z,13.46
2023-10-15T06:22:04.021Z,13.53
2023-10-15T06:23:35.935Z,13.47
2023-10-15T06:25:07.881Z,13.53
2023-10-15T06:26:39.946Z,13.52
2023-10-15T06:28:11.785Z,13.52
2023-10-15T06:29:43.733Z,13.46
2023-10-15T06:31:15.604Z,13.51
2023-10-15T06:32:47.535Z,13.45
2023-10-15T06:34:19.524Z,13.5
2023-10-15T06:35:51.388Z,13.52
2023-10-15T06:37:23.331Z,13.51
2023-10-15T06:38:55.274Z,13.48
2023-10-15T06:40:27.193Z,13.48
2023-10-15T06:41:59.138Z,13.49
2023-10-15T06:43:31.270Z,13.49
2023-10-15T06:45:03.013Z,13.5
2023-10-15T06:46:34.941Z,13.46
2023-10-15T06:48:06.988Z,13.45
2023-10-15T06:49:38.812Z,13.44
2023-10-15T06:51:10.735Z,13.46
2023-10-15T06:52:42.661Z,13.35
2023-10-15T06:54:14.683Z,13.72
2023-10-15T06:55:46.595Z,13.97
2023-10-15T06:57:18.474Z,13.93
2023-10-15T06:58:50.458Z,13.93
2023-10-15T07:00:22.337Z,14.17
2023-10-15T07:01:54.269Z,14.41
2023-10-15T07:03:26.189Z,14.52
2023-10-15T07:04:58.159Z,14.63
2023-10-15T07:06:30.093Z,14.8
2023-10-15T07:08:02.204Z,14.94
2023-10-15T07:09:34.036Z,15.04
2023-10-15T07:11:06.031Z,15.13
2023-10-15T07:12:37.802Z,15.28
2023-10-15T07:14:09.748Z,15.43
2023-10-15T07:15:41.663Z,15.52
2023-10-15T07:17:13.616Z,15.67
2023-10-15T07:18:45.596Z,15.79
2023-10-15T07:20:17.494Z,15.89
2023-10-15T07:21:49.413Z,16.04
2023-10-15T07:23:21.337Z,16.17
2023-10-15T07:24:53.288Z,16.26
2023-10-15T07:26:25.449Z,16.37
2023-10-15T07:27:57.258Z,16.45
2023-10-15T07:29:29.069Z,16.62
2023-10-15T07:31:01.057Z,16.87
2023-10-15T07:32:32.932Z,16.95
2023-10-15T07:34:04.927Z,17
2023-10-15T07:35:36.879Z,17.08
2023-10-15T07:37:08.742Z,17.16
2023-10-15T07:38:40.690Z,17.23
2023-10-15T07:40:12.618Z,17.32
2023-10-15T07:41:44.639Z,17.41
2023-10-15T07:43:16.483Z,17.49
2023-10-15T07:44:48.411Z,17.57
2023-10-15T07:46:20.461Z,17.59
2023-10-15T07:47:52.297Z,17.66
2023-10-15T07:49:24.460Z,17.77
2023-10-15T07:50:56.145Z,17.79
2023-10-15T07:52:28.080Z,17.89
2023-10-15T07:53:59.992Z,17.84
2023-10-15T07:55:32.116Z,17.95
2023-10-15T07:57:04.089Z,17.99
2023-10-15T07:58:35.823Z,18.08
2023-10-15T08:00:07.809Z,18.12
2023-10-15T08:01:39.692Z,18.17
2023-10-15T08:03:11.611Z,18.18
2023-10-15T08:04:43.539Z,18.27
2023-10-15T08:06:15.487Z,18.41
2023-10-15T08:07:47.434Z,19.17
2023-10-15T08:09:19.335Z,19.41
2023-10-15T08:10:51.285Z,19.17
2023-10-15T08:12:23.233Z,19.07
2023-10-15T08:13:55.203Z,19.04
2023-10-15T08:15:38.935Z,18.96
2023-10-15T08:17:10.741Z,18.94
2023-10-15T08:20:14.646Z,18.5
2023-10-15T08:21:46.599Z,18.45
2023-10-15T08:23:18.475Z,18.34
2023-10-15T08:30:58.188Z,17.78
2023-10-15T08:34:13.878Z,17.57
2023-10-15T08:35:45.774Z,17.45
2023-10-15T08:37:29.374Z,17.4
2023-10-15T08:40:21.468Z,17.2
2023-10-15T08:41:53.400Z,17.15
2023-10-15T08:43:25.384Z,17.04
2023-10-15T08:44:57.308Z,17.01
2023-10-15T08:48:47.307Z,16.82
2023-10-15T08:50:19.237Z,16.71
2023-10-15T08:52:03.106Z,16.7
2023-10-15T08:53:46.727Z,16.67
2023-10-15T08:55:30.433Z,16.62
2023-10-15T09:00:41.720Z,16.36
2023-10-15T09:02:25.279Z,16.34
2023-10-15T09:04:20.824Z,16.34
2023-10-15T09:05:52.798Z,16.2
2023-10-15T09:07:36.404Z,16.2
2023-10-15T09:09:20.106Z,16.2
2023-10-15T09:12:47.492Z,16.04
2023-10-15T09:14:24.168Z,16.03
2023-10-15T09:16:00.275Z,16.01
2023-10-15T09:17:32.264Z,15.95
2023-10-15T09:19:04.167Z,15.95
2023-10-15T09:20:36.166Z,15.89
2023-10-15T09:22:19.728Z,15.9
2023-10-15T09:24:03.465Z,15.88
2023-10-15T09:25:47.191Z,15.86
2023-10-15T09:27:51.289Z,15.82
2023-10-15T09:29:27.381Z,15.85
2023-10-15T09:30:59.436Z,15.78
2023-10-15T09:32:31.227Z,15.77
2023-10-15T09:35:35.141Z,15.73
2023-10-15T09:37:18.764Z,15.69
2023-10-15T09:39:02.540Z,15.71
2023-10-15T09:40:46.202Z,15.71
2023-10-15T09:42:50.339Z,15.71
2023-10-15T09:44:26.411Z,15.77
2023-10-15T09:45:58.343Z,15.71
2023-10-15T09:49:02.192Z,15.63
2023-10-15T09:50:34.131Z,15.56
2023-10-15T09:52:17.800Z,15.64
2023-10-15T09:54:01.491Z,15.6
2023-10-15T09:55:45.214Z,15.61
2023-10-15T09:57:49.295Z,15.6
2023-10-15T09:59:25.420Z,15.66
2023-10-15T10:00:57.335Z,15.65
2023-10-15T10:02:29.256Z,15.69
2023-10-15T10:04:01.220Z,15.66
2023-10-15T10:05:44.861Z,15.66
2023-10-15T10:07:09.913Z,15.67
2023-10-15T10:08:33.935Z,15.64
2023-10-15T10:09:54.136Z,15.6
2023-10-15T10:11:18.867Z,15.63
2023-10-15T10:12:39.025Z,15.6
2023-10-15T10:14:04.126Z,15.64
2023-10-15T10:15:28.092Z,15.55
2023-10-15T10:16:48.240Z,15.63
2023-10-15T10:19:33.197Z,15.54
2023-10-15T10:20:58.235Z,15.48
2023-10-15T10:22:22.255Z,15.51
2023-10-15T10:23:42.394Z,15.48
2023-10-15T10:25:07.218Z,15.54
2023-10-15T10:26:27.324Z,15.56
2023-10-15T10:27:52.436Z,15.57
2023-10-15T10:29:16.523Z,15.56
2023-10-15T10:30:36.595Z,15.63
2023-10-15T10:32:01.346Z,15.55
2023-10-15T10:33:33.278Z,15.56
2023-10-15T10:34:53.494Z,15.56
2023-10-15T10:36:18.510Z,15.57
2023-10-15T10:37:42.525Z,15.64
2023-10-15T10:39:02.667Z,15.62
2023-10-15T10:40:27.364Z,15.66
2023-10-15T10:41:47.630Z,15.64
2023-10-15T10:43:12.574Z,15.61
2023-10-15T10:44:36.575Z,15.58
2023-10-15T10:45:56.737Z,15.57
2023-10-15T10:47:21.602Z,15.59
2023-10-15T10:48:41.698Z,15.54
2023-10-15T10:50:06.750Z,15.58
2023-10-15T10:52:50.869Z,15.48
2023-10-15T10:54:15.738Z,15.43
2023-10-15T10:55:35.894Z,15.49
2023-10-15T10:57:00.946Z,15.55
2023-10-15T10:58:24.943Z,15.56
2023-10-15T10:59:45.127Z,15.54
2023-10-15T11:01:16.933Z,15.59
2023-10-15T11:02:39.863Z,15.61
2023-10-15T11:04:00.005Z,15.59
2023-10-15T11:05:25.085Z,15.61
2023-10-15T11:06:49.071Z,15.6
2023-10-15T11:08:09.315Z,15.57
2023-10-15T11:09:34.027Z,15.58
2023-10-15T11:10:54.236Z,15.57
2023-10-15T11:12:19.231Z,15.57
2023-10-15T11:13:43.230Z,15.57
2023-10-15T11:15:03.389Z,15.64
2023-10-15T11:16:28.180Z,15.64
2023-10-15T11:17:48.334Z,15.66
2023-10-15T11:19:13.398Z,15.65
2023-10-15T11:20:37.530Z,15.66
2023-10-15T11:21:57.634Z,15.7
2023-10-15T11:23:22.370Z,15.7
2023-10-15T11:24:42.521Z,15.7
2023-10-15T11:26:07.542Z,15.72
2023-10-15T11:27:31.572Z,15.68
2023-10-15T11:29:13.291Z,15.76
2023-10-15T11:30:38.327Z,15.77
2023-10-15T11:32:02.224Z,15.71
2023-10-15T11:33:22.357Z,15.75
2023-10-15T11:34:47.187Z,15.78
2023-10-15T11:36:07.322Z,15.79
2023-10-15T11:37:32.388Z,15.68
2023-10-15T11:38:56.441Z,15.68
2023-10-15T11:40:16.562Z,15.67
2023-10-15T11:41:41.355Z,15.69
2023-10-15T11:43:01.492Z,15.7
2023-10-15T11:44:26.540Z,15.69
2023-10-15T11:45:50.567Z,15.77
2023-10-15T11:47:10.682Z,15.77
2023-10-15T11:48:35.513Z,15.77
2023-10-15T11:49:55.628Z,15.79
2023-10-15T11:51:20.694Z,15.77
2023-10-15T11:52:44.904Z,15.8
2023-10-15T11:54:04.849Z,15.79
2023-10-15T11:55:44.675Z,15.83
2023-10-15T11:57:04.839Z,15.84
2023-10-15T11:58:29.653Z,15.87
2023-10-15T11:59:49.849Z,15.87
2023-10-15T12:01:14.845Z,15.88
2023-10-15T12:02:38.880Z,15.88
2023-10-15T12:03:58.982Z,15.89
2023-10-15T12:05:23.801Z,15.9
2023-10-15T12:06:43.936Z,15.92
2023-10-15T12:08:09.062Z,15.94
2023-10-15T12:09:33.002Z,15.94
2023-10-15T12:10:53.219Z,15.92
2023-10-15T12:12:17.977Z,15.98
2023-10-15T12:13:38.086Z,15.98
2023-10-15T12:15:03.246Z,15.99
2023-10-15T12:16:27.246Z,16
2023-10-15T12:17:47.300Z,16.04
2023-10-15T12:19:12.193Z,16.01
2023-10-15T12:20:32.268Z,16.03
2023-10-15T12:21:57.334Z,16.02
2023-10-15T12:23:21.390Z,16.01
2023-10-15T12:24:57.332Z,16
2023-10-15T12:26:21.336Z,15.99
2023-10-15T12:27:41.506Z,15.99
2023-10-15T12:29:06.278Z,16.1
2023-10-15T12:30:26.451Z,16.11
2023-10-15T12:31:51.480Z,16.1
2023-10-15T12:33:15.483Z,16.04
2023-10-15T12:34:35.677Z,16.12
2023-10-15T12:36:00.409Z,16.14
2023-10-15T12:37:20.560Z,16.15
2023-10-15T12:40:09.632Z,16.15
2023-10-15T12:43:09.623Z,16.1
2023-10-15T12:44:45.652Z,16.09
2023-10-15T12:46:17.608Z,16.15
2023-10-15T12:47:49.581Z,16.17
2023-10-15T12:49:21.479Z,16.2
2023-10-15T12:50:53.412Z,16.21
2023-10-15T12:52:37.060Z,16.24
2023-10-15T12:54:02.135Z,16.24
2023-10-15T12:55:26.163Z,16.29
2023-10-15T12:56:46.339Z,16.34
2023-10-15T12:58:11.059Z,16.37
2023-10-15T12:59:31.207Z,16.37
2023-10-15T13:00:56.272Z,16.35
2023-10-15T13:02:20.269Z,16.35
2023-10-15T13:03:40.428Z,16.44
2023-10-15T13:05:05.228Z,16.46
2023-10-15T13:06:25.354Z,16.45
2023-10-15T13:07:50.422Z,16.46
2023-10-15T13:09:14.425Z,16.5
2023-10-15T13:10:34.659Z,16.54
2023-10-15T13:11:59.371Z,16.57
2023-10-15T13:13:19.504Z,16.6
2023-10-15T13:14:44.642Z,16.57
2023-10-15T13:16:08.584Z,16.66
2023-10-15T13:17:28.738Z,16.67
2023-10-15T13:19:00.586Z,16.73
2023-10-15T13:20:23.525Z,16.76
2023-10-15T13:21:43.692Z,16.73
2023-10-15T13:23:08.730Z,16.71
2023-10-15T13:24:32.754Z,16.73
2023-10-15T13:25:52.916Z,16.76
2023-10-15T13:27:17.697Z,16.79
2023-10-15T13:28:37.829Z,16.79
2023-10-15T13:30:02.895Z,16.81
2023-10-15T13:31:26.894Z,16.84
2023-10-15T13:32:47.077Z,16.86
2023-10-15T13:34:11.854Z,16.87
2023-10-15T13:35:31.977Z,16.87
2023-10-15T13:36:57.028Z,16.9
2023-10-15T13:38:21.059Z,16.91
2023-10-15T13:39:41.190Z,16.91
2023-10-15T13:41:06.061Z,16.95
2023-10-15T13:42:26.122Z,16.96
2023-10-15T13:43:51.221Z,16.93
2023-10-15T13:45:15.220Z,16.96
2023-10-15T13:46:51.257Z,17.07
2023-10-15T13:48:15.255Z,17.04
2023-10-15T13:51:00.158Z,17.03
2023-10-15T13:52:20.301Z,17.01
2023-10-15T13:53:45.432Z,17.02
2023-10-15T13:55:09.370Z,17.01
2023-10-15T13:56:29.496Z,17.02
2023-10-15T13:57:54.328Z,17.03
2023-10-15T13:59:14.457Z,17.03
2023-10-15T14:00:39.532Z,17.04
2023-10-15T14:02:03.510Z,17.08
2023-10-15T14:03:23.698Z,17.1
2023-10-15T14:04:48.519Z,17.09
2023-10-15T14:06:08.826Z,17.09
2023-10-15T14:07:33.721Z,17.07
2023-10-15T14:08:57.713Z,17.11
2023-10-15T14:10:17.897Z,17.12
2023-10-15T14:11:42.660Z,17.15
2023-10-15T14:13:02.808Z,17.18
2023-10-15T14:14:27.849Z,17.15
2023-10-15T14:15:51.853Z,17.17
2023-10-15T14:17:27.907Z,17.2
2023-10-15T14:18:51.870Z,17.19
2023-10-15T14:20:12.049Z,17.2
2023-10-15T14:21:36.806Z,17.23
2023-10-15T14:22:56.944Z,17.2
2023-10-15T14:24:21.999Z,17.25
2023-10-15T14:25:46.070Z,17.24
2023-10-15T14:27:06.179Z,17.24
2023-10-15T14:28:30.955Z,17.25
2023-10-15T14:29:51.250Z,17.28
2023-10-15T14:31:16.357Z,17.29
2023-10-15T14:32:40.275Z,17.29
2023-10-15T14:34:00.301Z,17.31
2023-10-15T14:35:25.170Z,17.28
2023-10-15T14:36:45.241Z,17.33
2023-10-15T14:38:10.320Z,17.34
2023-10-15T14:39:34.294Z,17.34
2023-10-15T14:40:54.472Z,17.35
2023-10-15T14:42:19.255Z,17.35
2023-10-15T14:43:51.119Z,17.39
2023-10-15T14:45:11.246Z,17.39
2023-10-15T14:46:36.347Z,17.39
2023-10-15T14:48:00.305Z,17.43
2023-10-15T14:49:20.465Z,17.39
2023-10-15T14:50:45.278Z,17.43
2023-10-15T14:52:05.493Z,17.43
2023-10-15T14:53:30.496Z,17.4
2023-10-15T14:54:54.483Z,17.41
2023-10-15T14:56:14.614Z,17.42
2023-10-15T14:57:39.530Z,17.43
2023-10-15T14:58:59.572Z,17.43
2023-10-15T15:00:24.654Z,17.44
2023-10-15T15:01:48.630Z,17.45
2023-10-15T15:03:08.790Z,17.44
2023-10-15T15:04:33.613Z,17.45
2023-10-15T15:05:53.740Z,17.45
2023-10-15T15:07:18.779Z,17.45
2023-10-15T15:08:42.924Z,17.48
2023-10-15T15:11:42.788Z,17.15
2023-10-15T15:14:27.729Z,17.16
2023-10-15T15:15:47.925Z,17.15
2023-10-15T15:17:12.921Z,17.2
2023-10-15T15:18:36.952Z,17.19
2023-10-15T15:19:57.087Z,17.26
2023-10-15T15:21:21.893Z,17.25
2023-10-15T15:22:42.052Z,17.24
2023-10-15T15:24:07.088Z,17.29
2023-10-15T15:25:31.099Z,17.29
2023-10-15T15:27:07.116Z,17.33
2023-10-15T15:28:39.059Z,17.34
2023-10-15T15:30:11.013Z,17.29
2023-10-15T15:31:42.926Z,17.35
2023-10-15T15:33:14.847Z,17.34
2023-10-15T15:34:58.516Z,17.31
2023-10-15T15:36:23.650Z,17.31
2023-10-15T15:37:47.581Z,17.33
2023-10-15T15:39:07.733Z,17.31
2023-10-15T15:40:32.523Z,17.32
2023-10-15T15:41:52.642Z,17.27
2023-10-15T15:43:17.728Z,17.33
2023-10-15T15:44:41.815Z,17.34
2023-10-15T15:46:01.892Z,17.35
2023-10-15T15:47:26.692Z,17.36
2023-10-15T15:48:46.815Z,17.33
2023-10-15T15:50:11.880Z,17.29
2023-10-15T15:51:35.953Z,17.35
2023-10-15T15:52:56.093Z,17.34
2023-10-15T15:54:20.852Z,17.35
2023-10-15T15:55:40.994Z,17.34
2023-10-15T15:57:06.045Z,17.35
2023-10-15T15:58:30.081Z,17.34
2023-10-15T15:59:50.181Z,17.36
2023-10-15T16:01:22.054Z,17.32
2023-10-15T16:02:45.001Z,17.15
2023-10-15T16:04:05.143Z,17.27
2023-10-15T16:05:30.242Z,17.34
2023-10-15T16:06:54.348Z,17.31
2023-10-15T16:08:14.336Z,17.29
2023-10-15T16:09:39.309Z,17.24
2023-10-15T16:10:59.285Z,17.19
2023-10-15T16:12:24.384Z,17.03
2023-10-15T16:13:48.433Z,17
2023-10-15T16:15:08.624Z,16.98
2023-10-15T16:16:33.349Z,16.96
2023-10-15T16:17:53.465Z,16.93
2023-10-15T16:19:18.540Z,16.95
2023-10-15T16:20:42.512Z,16.94
2023-10-15T16:22:02.672Z,16.92
2023-10-15T16:23:27.482Z,16.77
2023-10-15T16:24:47.602Z,16.71
2023-10-15T16:26:12.724Z,16.77
2023-10-15T16:27:36.959Z,16.75
2023-10-15T16:28:56.892Z,16.65
2023-10-15T16:30:21.621Z,16.58
2023-10-15T16:31:41.771Z,16.56
2023-10-15T16:33:06.821Z,16.5
2023-10-15T16:34:30.837Z,16.44
2023-10-15T16:35:51.005Z,16.37
2023-10-15T16:37:15.873Z,16.32
2023-10-15T16:38:35.978Z,16.31
2023-10-15T16:40:01.149Z,16.23
2023-10-15T16:41:25.005Z,16.18
2023-10-15T16:42:45.146Z,16.08
2023-10-15T16:44:10.113Z,16.07
2023-10-15T16:45:30.086Z,16.07
2023-10-15T16:46:55.230Z,16.03
2023-10-15T16:48:19.254Z,16
2023-10-15T16:49:39.293Z,15.95
2023-10-15T16:51:04.114Z,15.91
2023-10-15T16:52:24.241Z,15.89
2023-10-15T16:53:49.304Z,15.85
2023-10-15T16:55:13.382Z,15.79
2023-10-15T16:56:33.558Z,15.77
2023-10-15T16:57:58.507Z,15.74
2023-10-15T16:59:18.477Z,15.72
2023-10-15T17:00:43.761Z,15.68
2023-10-15T17:02:07.717Z,15.66
2023-10-15T17:03:27.835Z,15.61
2023-10-15T17:04:52.686Z,15.59
2023-10-15T17:06:12.851Z,15.56
2023-10-15T17:07:37.780Z,15.52
2023-10-15T17:09:01.851Z,15.5
2023-10-15T17:10:37.769Z,15.38
2023-10-15T17:12:01.835Z,15.42
2023-10-15T17:13:21.815Z,15.39
2023-10-15T17:14:46.560Z,15.35
2023-10-15T17:16:06.830Z,15.34
2023-10-15T17:17:31.797Z,15.32
2023-10-15T17:18:56.047Z,15.27
2023-10-15T17:20:16.030Z,15.24
2023-10-15T17:21:40.744Z,15.14
2023-10-15T17:23:00.892Z,15.21
2023-10-15T17:24:25.901Z,15.15
2023-10-15T17:25:49.972Z,15.13
2023-10-15T17:27:10.085Z,15.1
2023-10-15T17:28:34.957Z,15.07
2023-10-15T17:29:55.269Z,15.06
2023-10-15T17:31:20.296Z,15.02
2023-10-15T17:32:44.200Z,14.98
2023-10-15T17:34:04.584Z,14.95
2023-10-15T17:35:29.466Z,14.86
2023-10-15T17:36:49.493Z,14.86
2023-10-15T17:38:14.219Z,14.86
2023-10-15T17:39:38.396Z,14.85
2023-10-15T17:40:58.681Z,14.83
2023-10-15T17:42:23.561Z,14.81
2023-10-15T17:43:43.691Z,14.79
2023-10-15T17:45:08.594Z,14.76
2023-10-15T17:46:32.538Z,14.73
2023-10-15T17:47:52.566Z,14.7
2023-10-15T17:49:17.340Z,14.66
2023-10-15T17:50:37.490Z,14.65
2023-10-15T17:52:02.529Z,14.62
2023-10-15T17:53:26.553Z,14.59
2023-10-15T17:54:46.683Z,14.58
2023-10-15T17:56:11.674Z,14.56
2023-10-15T17:57:31.826Z,14.55
2023-10-15T17:58:56.693Z,14.53
2023-10-15T18:00:21.058Z,14.48
2023-10-15T18:01:40.833Z,14.51
2023-10-15T18:03:05.909Z,14.46
2023-10-15T18:04:25.874Z,14.47
2023-10-15T18:05:50.836Z,14.45
2023-10-15T18:07:15.069Z,14.44
2023-10-15T18:08:35.207Z,14.44
2023-10-15T18:09:59.799Z,14.42
2023-10-15T18:11:20.204Z,14.41
2023-10-15T18:12:45.016Z,14.39
2023-10-15T18:14:09.024Z,14.34
2023-10-15T18:15:29.156Z,14.32
2023-10-15T18:16:53.957Z,14.29
2023-10-15T18:18:14.093Z,14.29
2023-10-15T18:19:39.239Z,14.27
2023-10-15T18:21:03.184Z,14.25
2023-10-15T18:22:23.312Z,14.24
2023-10-15T18:23:48.095Z,14.21
2023-10-15T18:25:08.240Z,14.22
2023-10-15T18:26:33.347Z,14.22
2023-10-15T18:27:57.316Z,14.19
2023-10-15T18:29:17.465Z,14.11
2023-10-15T18:30:42.285Z,14.14
2023-10-15T18:32:02.435Z,14.15
2023-10-15T18:33:27.486Z,14.12
2023-10-15T18:34:51.497Z,14.11
2023-10-15T18:36:11.623Z,14.09
2023-10-15T18:37:36.421Z,14.07
2023-10-15T18:38:56.579Z,14.07
2023-10-15T18:40:21.663Z,14.03
2023-10-15T18:41:45.748Z,14.02
2023-10-15T18:43:05.852Z,14.02
2023-10-15T18:44:30.588Z,14
2023-10-15T18:45:50.740Z,13.99
2023-10-15T18:47:15.783Z,13.97
2023-10-15T18:48:39.819Z,13.97
2023-10-15T18:49:59.976Z,13.95
2023-10-15T18:51:24.778Z,13.85
2023-10-15T18:52:44.931Z,13.93
2023-10-15T18:54:09.936Z,13.95
2023-10-15T18:55:33.979Z,13.92
2023-10-15T18:56:54.106Z,13.92
2023-10-15T18:58:18.904Z,13.9
2023-10-15T18:59:39.092Z,13.88
2023-10-15T19:01:04.112Z,13.88
2023-10-15T19:02:28.169Z,13.89
2023-10-15T19:03:48.269Z,13.88
2023-10-15T19:05:13.063Z,13.86
2023-10-15T19:06:33.222Z,13.83
2023-10-15T19:07:58.277Z,13.81
2023-10-15T19:09:22.324Z,13.8
2023-10-15T19:10:42.434Z,13.8
2023-10-15T19:12:07.218Z,13.79
2023-10-15T19:13:27.381Z,13.69
2023-10-15T19:14:52.417Z,13.74
2023-10-15T19:16:16.442Z,13.75
2023-10-15T19:17:36.562Z,13.7
2023-10-15T19:19:01.370Z,13.69
2023-10-15T19:20:21.489Z,13.64
2023-10-15T19:21:46.570Z,13.68
2023-10-15T19:23:10.584Z,13.69
2023-10-15T19:24:30.715Z,13.66
2023-10-15T19:25:55.557Z,13.66
2023-10-15T19:27:15.686Z,13.65
2023-10-15T19:28:40.724Z,13.64
2023-10-15T19:30:04.790Z,13.63
2023-10-15T19:31:24.885Z,13.63